Monte Rio, CA

5:09 AM PDT on August 22, 2014 (GMT -0700)
Sonoma County | Change Station
CLOSE
Current Station
Airport
Location: Santa Rosa,
Elevation: 125 ft
Nearby Weather Stations

Elev 125 ft 38.50 °N, 122.81 °W | Updated 1 hour ago

Overcast
Overcast
57 °F
Feels Like 57 °F
N
4
Wind Variable Wind from South

Today
High -- | Low -- °F
--% Chance of Precip.
Yesterday
High -- | Low -- °F
Precip. -- in
6:32 AM 7:56 PM
Waning Crescent, 8% visible
Pressure 29.89 in
Visibility 10.0 miles
Clouds Overcast 400 ft
Dew Point 55 °F
Humidity 93%
Rainfall 0.00 in
Snow Depth Not available.
UV 0 out of 12
Pollen 5.70 out of 12
Air Quality Not available.
Flu Activity Not available.
METAR KSTS 221053Z AUTO 19003KT 10SM OVC004 14/13 A2991 RMK AO2 SLP122 T01390128

More Conditions Fewer Conditions

Pressure 29.89 in
Visibility 10.0 miles
Clouds Overcast 400 ft
Dew Point 55 °F
Humidity 93%
Rainfall 0.00 in
Snow Depth Not available.
UV 0 out of 12
Pollen 5.70 out of 12
Air Quality Not available.
Flu Activity Not available.
METAR KSTS 221053Z AUTO 19003KT 10SM OVC004 14/13 A2991 RMK AO2 SLP122 T01390128

More Conditions Fewer Conditions

10-Day Weather Forecast

Almanac

Astronomy

Aug. 22, 2014 Rise Set
Actual Time 6:32 AM PDT 7:56 PM PDT
Civil Twilight 6:04 AM PDT 8:24 PM PDT
Nautical Twilight 5:31 AM PDT 8:57 PM PDT
Astronomical Twilight 4:56 AM PDT 9:32 PM PDT
Moon 4:01 AM PDT 6:07 PM PDT
Length of Visible Light 14h 19m
Length of Day
13h 23m
Tomorrow will be 2m 18s shorter.
Waning Crescent, 8% of the Moon is Illuminated
Today
Waning Crescent
Aug 25
New
Sep 2
First Quarter
Sep 8
Full
Sep 15
Last Quarter

Today's Extremes

State Highs State Lows

Community

WunderPhotos

Upload Photos

1,746,155 photos uploaded!

WunderBlogs® & News

By Dr. Jeff Masters
Director of Meteorology, Weather Underground
By Kari Strenfel
Meteorologist, Weather Underground
By Christopher C. Burt
Weather Historian, Weather Underground
August 22, 2014
August 22, 2014
August 22, 2014

Nearby

Air Quality

  Air Quality AQ Index Pollutant
Friday Good
PM2.5
Saturday Good
PM2.5
Sunday Moderate
PM2.5
Monday Moderate
PM2.5
Tuesday Moderate
PM2.5

Snow Depth

Station Depth Elevation
CSS Lab 1 in 6900 ft
Echo Peak 1 in 7800 ft
Tahoe City Cross 0 in 6750 ft
Independence Camp 0 in 7000 ft
Independence Creek 0 in 6500 ft

Earthquake Activity

City Distance Mag. Time & Date
Berkeley, California 59 miles 2.6 7:41 PM PDT
2014-08-16
Minimum magnitude displayed is 2.5.

Coastal Water Temperatures

Place Temperature
Point Reyes, CA 62.1 °F
Arena Cove, CA 59.0 °F
San Francisco, CA 64.0 °F
Richmond, CA 66.9 °F

Nearby Weather Stations